Alpine, Wyoming
Current Conditions -  °F | °C
As of 7:35 PM on Saturday 25 Oct 2014 (Local Time) from KAFO Reporting Station
Clear Clear  
Wind Chill: 55°   Ceiling: Unl
Heat Index: 55°   Visibility: 10mi
Dew Point: 32°   Wind: 3mph
Humidity: 41%   Direction: 140°SE
Pressure: 29.97"   Gusts: NA
Location:  43.18°N, 111.03°W
Report Text: KAFO 260135Z AUTO 14003KT 10SM CLR 13/00 A2997 RMK AO2
Loading
Personal Weather Stations






























Interactive Weather Map
Tropical Storm Tracking
New forecast layout! Learn more

10-Day Weather Forecast

Advertisements
Track Severe Weather on mobile